Time;durP1;ratioP1;P1;durP2;ratioP2;P2;SDS_P1;SDS_P2;PMS_P1;PMS_P2;Temp;Humidity;BMP_temperature;BMP_pressure;BME280_temperature;BME280_humidity;BME280_pressure;Samples;Min_cycle;Max_cycle;Signal;HPM_P1;HPM_P2
2021/11/10 00:01:44;;;;;;;75.82;26.63;;;;;;;;;;5075763;28;20119;-66
2021/11/10 00:04:10;;;;;;;56.92;23.45;;;;;;;;;;5045829;28;20041;-66
2021/11/10 00:06:37;;;;;;;68.18;26.80;;;;;;;;;;5051542;28;20094;-66
2021/11/10 00:09:05;;;;;;;59.83;23.23;;;;;;;;;;5037752;28;20107;-67
2021/11/10 00:11:32;;;;;;;64.57;26.25;;;;;;;;;;5049033;28;20186;-66
2021/11/10 00:13:58;;;;;;;56.75;23.58;;;;;;;;;;5056635;28;20466;-66
2021/11/10 00:16:24;;;;;;;57.35;25.23;;;;;;;;;;5041333;28;20381;-66
2021/11/10 00:18:51;;;;;;;60.63;26.02;;;;;;;;;;5074434;28;20186;-66
2021/11/10 00:21:19;;;;;;;62.22;24.88;;;;;;;;;;5045075;28;20049;-66
2021/11/10 00:23:45;;;;;;;63.92;25.08;;;;;;;;;;5048444;28;20128;-66
2021/11/10 00:26:11;;;;;;;62.47;24.50;;;;;;;;;;5046692;28;20047;-66
2021/11/10 00:28:37;;;;;;;60.95;26.05;;;;;;;;;;5046362;28;20595;-66
2021/11/10 00:31:03;;;;;;;62.72;25.20;;;;;;;;;;5049700;28;20051;-66
2021/11/10 00:33:30;;;;;;;50.53;22.77;;;;;;;;;;5038821;28;20041;-66
2021/11/10 00:35:56;;;;;;;59.22;24.52;;;;;;;;;;5041206;28;20073;-67
2021/11/10 00:38:22;;;;;;;59.50;24.95;;;;;;;;;;5052317;28;20056;-66
2021/11/10 00:40:48;;;;;;;60.00;24.00;;;;;;;;;;5054748;28;20124;-67
2021/11/10 00:43:15;;;;;;;65.15;24.92;;;;;;;;;;5050269;28;20065;-67
2021/11/10 00:45:41;;;;;;;67.18;25.55;;;;;;;;;;5050484;28;20499;-66
2021/11/10 00:48:10;;;;;;;54.90;24.60;;;;;;;;;;5045124;28;20401;-66
2021/11/10 00:50:36;;;;;;;58.00;24.45;;;;;;;;;;5046117;28;20045;-66
2021/11/10 00:53:03;;;;;;;62.58;24.67;;;;;;;;;;5040352;28;20041;-66
2021/11/10 00:55:29;;;;;;;60.28;24.48;;;;;;;;;;5050200;28;20041;-67
2021/11/10 00:57:56;;;;;;;65.90;27.27;;;;;;;;;;5049553;28;20416;-67
2021/11/10 01:00:23;;;;;;;54.50;24.65;;;;;;;;;;5084657;28;20049;-67
2021/11/10 01:02:49;;;;;;;51.60;23.85;;;;;;;;;;5052740;28;20045;-66
2021/11/10 01:05:16;;;;;;;59.42;26.63;;;;;;;;;;5049411;28;20053;-66
2021/11/10 01:07:42;;;;;;;62.08;26.10;;;;;;;;;;5052388;28;20171;-66
2021/11/10 01:10:09;;;;;;;63.78;27.90;;;;;;;;;;5045025;28;20154;-66
2021/11/10 01:12:35;;;;;;;65.30;28.58;;;;;;;;;;5033322;28;20056;-66
2021/11/10 01:15:02;;;;;;;64.75;28.40;;;;;;;;;;5034264;28;20049;-67
2021/11/10 01:17:29;;;;;;;65.43;29.25;;;;;;;;;;5041456;28;20037;-67
2021/11/10 01:19:55;;;;;;;70.60;29.40;;;;;;;;;;5044580;28;20405;-66
2021/11/10 01:22:21;;;;;;;69.47;29.80;;;;;;;;;;5045823;28;20120;-67
2021/11/10 01:24:47;;;;;;;73.72;29.10;;;;;;;;;;5044221;28;20045;-67
2021/11/10 01:27:14;;;;;;;72.18;29.77;;;;;;;;;;5048794;28;20120;-67
2021/11/10 01:29:41;;;;;;;75.47;30.20;;;;;;;;;;5039663;28;20553;-67
2021/11/10 01:32:07;;;;;;;86.28;32.20;;;;;;;;;;5032582;28;20550;-66
2021/11/10 01:34:33;;;;;;;79.43;31.45;;;;;;;;;;5038830;28;20059;-67
2021/11/10 01:36:59;;;;;;;78.93;32.22;;;;;;;;;;5035059;28;20037;-67
2021/11/10 01:39:26;;;;;;;76.85;31.83;;;;;;;;;;5055011;28;20163;-67
2021/11/10 01:42:01;;;;;;;83.75;32.83;;;;;;;;;;5036813;28;20033;-67
2021/11/10 01:44:28;;;;;;;87.68;32.65;;;;;;;;;;5043288;28;20065;-67
2021/11/10 01:46:56;;;;;;;86.93;31.08;;;;;;;;;;5038015;28;20088;-66
2021/11/10 01:49:22;;;;;;;77.22;33.40;;;;;;;;;;5074070;28;20057;-67
2021/11/10 01:51:49;;;;;;;81.85;32.35;;;;;;;;;;5045025;28;20099;-67
2021/11/10 01:54:16;;;;;;;89.75;33.28;;;;;;;;;;5039941;28;20049;-67
2021/11/10 01:56:43;;;;;;;93.57;33.80;;;;;;;;;;5041500;28;20124;-67
2021/11/10 01:59:09;;;;;;;82.95;33.35;;;;;;;;;;5056539;28;20048;-67
2021/11/10 02:01:44;;;;;;;83.55;33.85;;;;;;;;;;5045113;28;20045;-67
2021/11/10 02:04:10;;;;;;;101.07;36.45;;;;;;;;;;5080686;28;20140;-67
2021/11/10 02:06:37;;;;;;;101.88;36.80;;;;;;;;;;5035581;28;20167;-67
2021/11/10 02:09:04;;;;;;;102.40;38.97;;;;;;;;;;5041980;28;20052;-67
2021/11/10 02:11:30;;;;;;;100.63;36.20;;;;;;;;;;5039527;28;20128;-66
2021/11/10 02:13:56;;;;;;;102.32;37.58;;;;;;;;;;5065666;28;20045;-67
2021/11/10 02:16:22;;;;;;;103.63;37.70;;;;;;;;;;5030690;28;20049;-67
2021/11/10 02:18:49;;;;;;;102.07;39.83;;;;;;;;;;5036378;28;20044;-67
2021/11/10 02:21:17;;;;;;;103.82;40.88;;;;;;;;;;5030251;28;20041;-67
2021/11/10 02:23:44;;;;;;;102.25;40.35;;;;;;;;;;5040122;28;20076;-67
2021/11/10 02:26:15;;;;;;;117.68;40.28;;;;;;;;;;5042044;28;20053;-66
2021/11/10 02:28:42;;;;;;;99.88;39.53;;;;;;;;;;5039415;28;20049;-67
2021/11/10 02:31:10;;;;;;;93.57;40.55;;;;;;;;;;5039686;28;20088;-67
2021/11/10 02:33:36;;;;;;;103.00;39.97;;;;;;;;;;5041564;28;20045;-67
2021/11/10 02:36:04;;;;;;;109.70;40.35;;;;;;;;;;5036850;28;20493;-67
2021/11/10 02:38:31;;;;;;;108.13;41.03;;;;;;;;;;5038515;28;20051;-67
2021/11/10 02:40:58;;;;;;;90.13;39.85;;;;;;;;;;5041806;28;20041;-66
2021/11/10 02:43:25;;;;;;;111.25;40.88;;;;;;;;;;5047313;28;20431;-67
2021/11/10 02:48:45;;;;;;;104.78;40.83;;;;;;;;;;5037514;28;20033;-75
2021/11/10 02:51:11;;;;;;;103.50;39.45;;;;;;;;;;5050566;28;20412;-67
2021/11/10 02:53:37;;;;;;;119.00;42.75;;;;;;;;;;5038172;28;20118;-66
2021/11/10 02:56:03;;;;;;;109.35;41.55;;;;;;;;;;5042080;28;21318;-67
2021/11/10 02:58:31;;;;;;;107.50;41.65;;;;;;;;;;5036515;28;20049;-67
2021/11/10 03:00:58;;;;;;;106.43;42.67;;;;;;;;;;5067266;28;20074;-67
2021/11/10 03:03:24;;;;;;;107.90;41.08;;;;;;;;;;5054600;28;20068;-66
2021/11/10 03:05:52;;;;;;;99.85;41.90;;;;;;;;;;5042399;28;20048;-67
2021/11/10 03:08:19;;;;;;;102.78;42.38;;;;;;;;;;5037121;28;20041;-67
2021/11/10 03:10:48;;;;;;;116.68;43.97;;;;;;;;;;5063192;28;20049;-67
2021/11/10 03:13:14;;;;;;;120.15;44.33;;;;;;;;;;5041128;28;20408;-67
2021/11/10 03:15:41;;;;;;;109.22;41.00;;;;;;;;;;5039599;28;20055;-66
2021/11/10 03:18:08;;;;;;;106.75;42.10;;;;;;;;;;5069384;28;20037;-67
2021/11/10 03:20:34;;;;;;;111.28;42.42;;;;;;;;;;5043306;28;20057;-66
2021/11/10 03:23:00;;;;;;;116.13;44.00;;;;;;;;;;5043308;28;20038;-67
2021/11/10 03:25:27;;;;;;;119.53;45.17;;;;;;;;;;5043228;28;20102;-67
2021/11/10 03:27:54;;;;;;;121.65;42.50;;;;;;;;;;5041142;28;20117;-67
2021/11/10 03:30:21;;;;;;;114.57;44.05;;;;;;;;;;5050665;28;20061;-67
2021/11/10 03:32:49;;;;;;;113.40;44.83;;;;;;;;;;5037534;28;20050;-67
2021/11/10 03:35:15;;;;;;;112.90;44.28;;;;;;;;;;5048211;28;20072;-67
2021/11/10 03:37:41;;;;;;;120.43;45.00;;;;;;;;;;5039812;28;20131;-67
2021/11/10 03:40:08;;;;;;;115.95;45.50;;;;;;;;;;5038583;28;20068;-67
2021/11/10 03:42:35;;;;;;;122.35;43.03;;;;;;;;;;5052197;28;20061;-67
2021/11/10 03:45:01;;;;;;;114.85;42.80;;;;;;;;;;5039431;28;20037;-67
2021/11/10 03:47:27;;;;;;;108.13;43.83;;;;;;;;;;5040212;28;20046;-67
2021/11/10 03:49:54;;;;;;;113.60;44.72;;;;;;;;;;5066057;28;20504;-67
2021/11/10 03:52:20;;;;;;;113.40;43.40;;;;;;;;;;5045180;28;20485;-67
2021/11/10 03:54:47;;;;;;;117.32;43.53;;;;;;;;;;5045416;28;20044;-67
2021/11/10 03:57:13;;;;;;;116.35;44.90;;;;;;;;;;5044997;28;20048;-67
2021/11/10 03:59:40;;;;;;;111.05;43.72;;;;;;;;;;5054057;28;20056;-66
2021/11/10 04:02:07;;;;;;;106.15;42.50;;;;;;;;;;5051184;28;20040;-67
2021/11/10 04:04:33;;;;;;;110.55;42.72;;;;;;;;;;5055377;28;20534;-67
2021/11/10 04:06:59;;;;;;;117.43;42.75;;;;;;;;;;5049356;28;20056;-67
2021/11/10 04:09:26;;;;;;;130.90;46.70;;;;;;;;;;5076026;28;20046;-67
2021/11/10 04:11:52;;;;;;;115.53;43.42;;;;;;;;;;5041670;28;20045;-67
2021/11/10 04:14:18;;;;;;;122.45;43.75;;;;;;;;;;5071075;28;20666;-67
2021/11/10 04:16:45;;;;;;;112.32;42.53;;;;;;;;;;5045546;28;20138;-67
2021/11/10 04:19:11;;;;;;;113.82;43.60;;;;;;;;;;5077913;28;20051;-67
2021/11/10 04:21:38;;;;;;;107.65;43.50;;;;;;;;;;5047381;28;20423;-67
2021/11/10 04:24:05;;;;;;;112.38;43.63;;;;;;;;;;5044435;28;20049;-66
2021/11/10 04:26:34;;;;;;;115.90;41.83;;;;;;;;;;5048702;28;20085;-67
2021/11/10 04:29:00;;;;;;;107.25;42.17;;;;;;;;;;5044418;28;20154;-66
2021/11/10 04:31:27;;;;;;;105.28;44.13;;;;;;;;;;5075139;28;20425;-67
2021/11/10 04:33:54;;;;;;;101.03;42.55;;;;;;;;;;5027873;28;20055;-67
2021/11/10 04:36:21;;;;;;;96.38;42.30;;;;;;;;;;5039148;28;20033;-67
2021/11/10 04:38:47;;;;;;;99.32;41.40;;;;;;;;;;5044479;28;20102;-67
2021/11/10 04:41:14;;;;;;;88.15;39.75;;;;;;;;;;5038891;28;20532;-67
2021/11/10 04:43:41;;;;;;;95.47;41.38;;;;;;;;;;5034608;28;20048;-67
2021/11/10 04:46:23;;;;;;;90.47;40.70;;;;;;;;;;5062744;28;20052;-67
2021/11/10 04:48:50;;;;;;;84.30;40.25;;;;;;;;;;5045357;28;20045;-67
2021/11/10 04:51:17;;;;;;;83.60;39.05;;;;;;;;;;5040933;28;20091;-67
2021/11/10 04:53:45;;;;;;;92.70;40.72;;;;;;;;;;5036246;28;20050;-67
2021/11/10 04:56:11;;;;;;;85.30;40.17;;;;;;;;;;5032593;28;20041;-67
2021/11/10 04:58:38;;;;;;;84.03;40.22;;;;;;;;;;5037922;28;20041;-67
2021/11/10 05:01:04;;;;;;;79.43;40.60;;;;;;;;;;5044518;28;20048;-67
2021/11/10 05:03:31;;;;;;;88.93;40.45;;;;;;;;;;5043330;28;20076;-67
2021/11/10 05:05:57;;;;;;;78.75;37.92;;;;;;;;;;5081925;28;20060;-67
2021/11/10 05:08:23;;;;;;;82.03;38.72;;;;;;;;;;5046364;28;20045;-67
2021/11/10 05:10:49;;;;;;;72.00;36.47;;;;;;;;;;5042851;28;20120;-67
2021/11/10 05:13:16;;;;;;;71.45;37.53;;;;;;;;;;5054619;28;20049;-67
2021/11/10 05:15:42;;;;;;;82.80;39.97;;;;;;;;;;5044710;28;20041;-67
2021/11/10 05:18:09;;;;;;;80.70;37.67;;;;;;;;;;5071795;28;20153;-67
2021/11/10 05:20:35;;;;;;;77.60;38.67;;;;;;;;;;5048233;28;20508;-67
2021/11/10 05:23:01;;;;;;;78.95;36.72;;;;;;;;;;5045515;28;20052;-67
2021/11/10 05:25:27;;;;;;;72.15;37.00;;;;;;;;;;5044430;28;20437;-67
2021/11/10 05:27:53;;;;;;;77.55;36.67;;;;;;;;;;5079570;28;20045;-67
2021/11/10 05:30:19;;;;;;;74.57;35.67;;;;;;;;;;5042562;28;20025;-67
2021/11/10 05:32:46;;;;;;;73.53;34.92;;;;;;;;;;5040221;28;20054;-67
2021/11/10 05:35:12;;;;;;;69.80;35.92;;;;;;;;;;5049410;28;20055;-67
2021/11/10 05:37:38;;;;;;;70.47;35.58;;;;;;;;;;5040361;28;20041;-67
2021/11/10 05:40:07;;;;;;;64.07;33.47;;;;;;;;;;5041945;28;20056;-67
2021/11/10 05:42:33;;;;;;;66.05;34.83;;;;;;;;;;5039063;28;20037;-67
2021/11/10 05:45:00;;;;;;;74.05;34.50;;;;;;;;;;5039195;28;20076;-67
2021/11/10 05:47:26;;;;;;;70.30;33.88;;;;;;;;;;5035496;28;20045;-66
2021/11/10 05:49:52;;;;;;;68.57;32.30;;;;;;;;;;5043861;28;20124;-67
2021/11/10 05:52:18;;;;;;;57.42;32.85;;;;;;;;;;5043661;28;20043;-66
2021/11/10 05:54:44;;;;;;;63.95;32.67;;;;;;;;;;5029423;28;20063;-67
2021/11/10 05:57:13;;;;;;;61.83;31.75;;;;;;;;;;5065548;28;20520;-66
2021/11/10 05:59:41;;;;;;;55.05;30.80;;;;;;;;;;5041781;28;20056;-67
2021/11/10 06:02:07;;;;;;;61.22;30.23;;;;;;;;;;5060920;28;20046;-67
2021/11/10 06:04:33;;;;;;;57.35;29.13;;;;;;;;;;5039656;28;20106;-66
2021/11/10 06:06:59;;;;;;;61.10;31.10;;;;;;;;;;5032712;28;20045;-66
2021/11/10 06:09:25;;;;;;;57.58;27.20;;;;;;;;;;5072710;28;20045;-66
2021/11/10 06:11:52;;;;;;;46.38;26.15;;;;;;;;;;5074567;28;20373;-67
2021/11/10 06:14:18;;;;;;;46.10;25.88;;;;;;;;;;5043405;28;20041;-67
2021/11/10 06:16:44;;;;;;;49.88;26.90;;;;;;;;;;5044563;28;20055;-67
2021/11/10 06:19:10;;;;;;;54.33;26.48;;;;;;;;;;5028703;28;20033;-66
2021/11/10 06:21:36;;;;;;;48.97;26.63;;;;;;;;;;5047561;28;20056;-66
2021/11/10 06:24:03;;;;;;;49.25;26.25;;;;;;;;;;5041478;28;20445;-67
2021/11/10 06:26:29;;;;;;;51.55;24.90;;;;;;;;;;5042499;28;20033;-67
2021/11/10 06:28:55;;;;;;;48.78;25.73;;;;;;;;;;5042275;28;20049;-67
2021/11/10 06:31:21;;;;;;;42.42;23.40;;;;;;;;;;5042973;28;20128;-67
2021/11/10 06:33:49;;;;;;;46.63;23.73;;;;;;;;;;5043791;28;20132;-67
2021/11/10 06:36:15;;;;;;;48.22;23.60;;;;;;;;;;5041807;28;20055;-67
2021/11/10 06:38:44;;;;;;;48.42;23.52;;;;;;;;;;5049567;28;20570;-67
2021/11/10 06:41:10;;;;;;;52.38;23.10;;;;;;;;;;5041618;28;20053;-67
2021/11/10 06:43:37;;;;;;;49.78;22.92;;;;;;;;;;5044358;28;20041;-67
2021/11/10 06:46:03;;;;;;;48.00;24.88;;;;;;;;;;5041255;28;20036;-67
2021/11/10 06:48:29;;;;;;;44.70;24.73;;;;;;;;;;5040631;28;20076;-67
2021/11/10 06:50:55;;;;;;;53.10;24.65;;;;;;;;;;5044783;28;20112;-67
2021/11/10 06:53:22;;;;;;;39.95;22.80;;;;;;;;;;5070327;28;20136;-67
2021/11/10 06:55:48;;;;;;;48.70;26.25;;;;;;;;;;5039407;28;20043;-67
2021/11/10 06:58:14;;;;;;;55.08;24.13;;;;;;;;;;5036884;28;20088;-67
2021/11/10 07:00:40;;;;;;;51.42;24.05;;;;;;;;;;5042461;28;20049;-66
2021/11/10 07:03:07;;;;;;;44.22;23.25;;;;;;;;;;5046449;28;20087;-67
2021/11/10 07:05:33;;;;;;;61.20;24.80;;;;;;;;;;5044301;28;20174;-67
2021/11/10 07:07:59;;;;;;;47.47;25.30;;;;;;;;;;5068532;28;20193;-66
2021/11/10 07:10:26;;;;;;;48.35;25.42;;;;;;;;;;5042124;28;20040;-68
2021/11/10 07:12:52;;;;;;;47.78;23.95;;;;;;;;;;5041994;28;20041;-67
2021/11/10 07:15:18;;;;;;;53.08;25.17;;;;;;;;;;5045232;28;20056;-67
2021/11/10 07:17:44;;;;;;;60.63;25.80;;;;;;;;;;5043852;28;20129;-67
2021/11/10 07:20:11;;;;;;;57.08;25.05;;;;;;;;;;5039302;28;20124;-67
2021/11/10 07:22:37;;;;;;;50.75;24.58;;;;;;;;;;5038573;28;20049;-66
2021/11/10 07:25:04;;;;;;;47.92;25.70;;;;;;;;;;5044521;28;20083;-69
2021/11/10 07:27:30;;;;;;;48.72;25.52;;;;;;;;;;5036117;28;20090;-67
2021/11/10 07:29:57;;;;;;;53.60;24.38;;;;;;;;;;5035532;28;20045;-67
2021/11/10 07:32:23;;;;;;;50.90;25.23;;;;;;;;;;5039616;28;20052;-67
2021/11/10 07:34:49;;;;;;;50.03;27.10;;;;;;;;;;5042073;28;20056;-67
2021/11/10 07:37:16;;;;;;;51.10;25.65;;;;;;;;;;5044414;28;20474;-68
2021/11/10 07:39:45;;;;;;;52.40;26.00;;;;;;;;;;5073364;28;20088;-67
2021/11/10 07:42:11;;;;;;;49.70;25.63;;;;;;;;;;5037146;28;20054;-67
2021/11/10 07:44:39;;;;;;;46.40;25.60;;;;;;;;;;5037214;28;20082;-67
2021/11/10 07:47:08;;;;;;;50.90;24.35;;;;;;;;;;5037243;28;20517;-67
2021/11/10 07:49:34;;;;;;;44.53;23.88;;;;;;;;;;5036051;28;20045;-67
2021/11/10 07:52:01;;;;;;;45.05;22.83;;;;;;;;;;5037728;28;20045;-67
2021/11/10 07:54:27;;;;;;;55.08;23.77;;;;;;;;;;5037329;28;20072;-67
2021/11/10 07:56:53;;;;;;;55.80;24.35;;;;;;;;;;5036758;28;20049;-67
2021/11/10 07:59:19;;;;;;;42.17;23.02;;;;;;;;;;5036604;28;20134;-67
2021/11/10 08:01:45;;;;;;;53.25;24.00;;;;;;;;;;5037321;28;20040;-67
2021/11/10 08:04:12;;;;;;;46.58;23.08;;;;;;;;;;5039482;28;20060;-67
2021/11/10 08:06:38;;;;;;;43.97;21.23;;;;;;;;;;5037102;28;20049;-67
2021/11/10 08:09:04;;;;;;;42.42;21.90;;;;;;;;;;5071324;28;20183;-67
2021/11/10 08:11:30;;;;;;;37.58;21.55;;;;;;;;;;5043833;28;20045;-67
2021/11/10 08:13:57;;;;;;;49.83;23.63;;;;;;;;;;5043321;28;20033;-67
2021/11/10 08:16:25;;;;;;;41.00;21.83;;;;;;;;;;5047562;28;20488;-68
2021/11/10 08:18:51;;;;;;;43.08;21.90;;;;;;;;;;5049310;28;20063;-68
2021/11/10 08:21:19;;;;;;;43.15;21.58;;;;;;;;;;5078031;28;20048;-67
2021/11/10 08:23:45;;;;;;;40.50;19.98;;;;;;;;;;5046690;28;20408;-67
2021/11/10 08:26:11;;;;;;;40.13;21.33;;;;;;;;;;5040473;28;20078;-67
2021/11/10 08:28:37;;;;;;;45.63;21.20;;;;;;;;;;5041285;28;20513;-67
2021/11/10 08:31:04;;;;;;;39.67;20.42;;;;;;;;;;5048445;28;20204;-68
2021/11/10 08:33:30;;;;;;;36.30;20.17;;;;;;;;;;5044506;28;20037;-67
2021/11/10 08:35:57;;;;;;;37.55;19.83;;;;;;;;;;5048322;28;20538;-69
2021/11/10 08:38:23;;;;;;;38.40;18.60;;;;;;;;;;5049764;28;20047;-67
2021/11/10 08:40:50;;;;;;;36.42;20.23;;;;;;;;;;5045749;28;20048;-68
2021/11/10 08:43:17;;;;;;;37.78;18.35;;;;;;;;;;5041951;28;20120;-67
2021/11/10 08:45:45;;;;;;;39.45;19.67;;;;;;;;;;5047529;28;20037;-69
2021/11/10 08:48:12;;;;;;;36.13;18.48;;;;;;;;;;5055829;28;20045;-68
2021/11/10 08:50:41;;;;;;;32.42;17.60;;;;;;;;;;5047159;28;20120;-83
2021/11/10 08:53:07;;;;;;;37.55;18.70;;;;;;;;;;5041488;28;20049;-67
2021/11/10 08:55:34;;;;;;;38.13;18.10;;;;;;;;;;5033920;28;20040;-68
2021/11/10 08:58:00;;;;;;;39.15;19.65;;;;;;;;;;5048773;28;20065;-67
2021/11/10 09:00:28;;;;;;;37.08;17.42;;;;;;;;;;5045252;28;20040;-67
2021/11/10 09:02:54;;;;;;;35.45;18.20;;;;;;;;;;5042326;28;20073;-68
2021/11/10 09:05:21;;;;;;;42.78;17.75;;;;;;;;;;5039562;28;21037;-68
2021/11/10 09:07:47;;;;;;;39.75;18.95;;;;;;;;;;5039290;28;20145;-68
2021/11/10 09:10:15;;;;;;;36.97;18.00;;;;;;;;;;5048359;28;20051;-68
2021/11/10 09:12:41;;;;;;;38.47;17.92;;;;;;;;;;5045789;28;20049;-67
2021/11/10 09:15:10;;;;;;;43.28;19.83;;;;;;;;;;5048291;28;20076;-67
2021/11/10 09:17:36;;;;;;;35.45;15.95;;;;;;;;;;5045543;28;20083;-68
2021/11/10 09:20:04;;;;;;;39.42;16.60;;;;;;;;;;5056259;28;20511;-67
2021/11/10 09:22:31;;;;;;;37.17;15.98;;;;;;;;;;5045032;28;20041;-68
2021/11/10 09:24:57;;;;;;;38.28;16.80;;;;;;;;;;5041597;28;20127;-69
2021/11/10 09:27:23;;;;;;;46.35;17.90;;;;;;;;;;5039452;28;20049;-68
2021/11/10 09:29:50;;;;;;;39.13;16.50;;;;;;;;;;5040586;28;20046;-70
2021/11/10 09:32:16;;;;;;;43.55;18.33;;;;;;;;;;5041718;28;20056;-70
2021/11/10 09:34:42;;;;;;;38.67;16.58;;;;;;;;;;5045696;28;20099;-71
2021/11/10 09:37:09;;;;;;;35.90;17.83;;;;;;;;;;5040645;28;20130;-71
2021/11/10 09:39:35;;;;;;;32.42;16.25;;;;;;;;;;5036404;28;20041;-71
2021/11/10 09:42:01;;;;;;;37.45;17.35;;;;;;;;;;5043926;28;20116;-70
2021/11/10 09:44:27;;;;;;;38.63;17.13;;;;;;;;;;5043026;28;20037;-70
2021/11/10 09:46:55;;;;;;;43.47;17.30;;;;;;;;;;5077197;28;20048;-70
2021/11/10 09:49:21;;;;;;;38.50;16.98;;;;;;;;;;5046160;28;20509;-70
2021/11/10 09:51:48;;;;;;;43.65;18.80;;;;;;;;;;5042960;28;20449;-70
2021/11/10 09:54:14;;;;;;;39.97;17.17;;;;;;;;;;5042994;28;20144;-70
2021/11/10 09:56:42;;;;;;;41.22;18.83;;;;;;;;;;5042441;28;20048;-70
2021/11/10 09:59:09;;;;;;;37.65;16.88;;;;;;;;;;5042179;28;20117;-70
2021/11/10 10:01:36;;;;;;;37.13;17.48;;;;;;;;;;5043263;28;20522;-70
2021/11/10 10:04:02;;;;;;;43.13;17.45;;;;;;;;;;5038804;28;20057;-70
2021/11/10 10:06:29;;;;;;;33.20;17.02;;;;;;;;;;5051675;28;20049;-70
2021/11/10 10:08:57;;;;;;;43.85;17.80;;;;;;;;;;5047922;28;20041;-70
2021/11/10 10:11:23;;;;;;;38.25;16.63;;;;;;;;;;5046983;28;20135;-70
2021/11/10 10:13:50;;;;;;;38.72;16.20;;;;;;;;;;5039662;28;20045;-70
2021/11/10 10:16:23;;;;;;;38.15;15.85;;;;;;;;;;5044849;28;20033;-70
2021/11/10 10:18:50;;;;;;;37.00;16.17;;;;;;;;;;5039931;28;20099;-70
2021/11/10 10:21:18;;;;;;;43.15;16.30;;;;;;;;;;5042795;28;20053;-70
2021/11/10 10:23:47;;;;;;;35.58;14.93;;;;;;;;;;5037470;28;20049;-70
2021/11/10 10:26:15;;;;;;;39.35;15.45;;;;;;;;;;5036850;28;20068;-70
2021/11/10 10:28:42;;;;;;;41.58;17.17;;;;;;;;;;5050514;28;20419;-70
2021/11/10 10:31:11;;;;;;;38.35;15.40;;;;;;;;;;5053304;28;20045;-70
2021/11/10 10:33:40;;;;;;;42.40;15.77;;;;;;;;;;5039804;28;20128;-70
2021/11/10 10:36:09;;;;;;;38.35;14.95;;;;;;;;;;5037315;28;20037;-69
2021/11/10 10:38:38;;;;;;;36.70;15.27;;;;;;;;;;5040811;28;20041;-74
2021/11/10 10:41:05;;;;;;;37.25;15.88;;;;;;;;;;5042103;28;20493;-71
2021/11/10 10:43:37;;;;;;;35.17;15.35;;;;;;;;;;5040726;28;20041;-71
2021/11/10 10:46:03;;;;;;;32.83;14.30;;;;;;;;;;5042912;28;20120;-71
2021/11/10 10:48:30;;;;;;;34.15;15.07;;;;;;;;;;5037591;28;20393;-71
2021/11/10 10:50:59;;;;;;;39.28;16.10;;;;;;;;;;5037608;28;20045;-71
2021/11/10 10:53:44;;;;;;;30.70;14.40;;;;;;;;;;5039025;28;20132;-72
2021/11/10 10:56:18;;;;;;;32.95;14.93;;;;;;;;;;5041435;28;20048;-71
2021/11/10 10:58:45;;;;;;;38.80;16.20;;;;;;;;;;5043797;28;20086;-71
2021/11/10 11:01:17;;;;;;;41.33;15.15;;;;;;;;;;5041144;28;20119;-71
2021/11/10 11:03:50;;;;;;;41.65;15.55;;;;;;;;;;5042528;28;20180;-71
2021/11/10 11:06:35;;;;;;;32.63;15.55;;;;;;;;;;5048373;28;20536;-71
2021/11/10 11:09:12;;;;;;;39.40;16.08;;;;;;;;;;5044520;28;20037;-71
2021/11/10 11:11:40;;;;;;;38.85;16.15;;;;;;;;;;5042519;28;20060;-71
2021/11/10 11:14:15;;;;;;;33.88;16.95;;;;;;;;;;5040185;28;20493;-71
2021/11/10 11:16:42;;;;;;;37.60;17.30;;;;;;;;;;5039380;28;20053;-71
2021/11/10 11:19:09;;;;;;;38.47;17.30;;;;;;;;;;5059375;28;20045;-71
2021/11/10 11:21:46;;;;;;;45.53;17.63;;;;;;;;;;5042968;28;20550;-71
2021/11/10 11:24:25;;;;;;;41.85;16.48;;;;;;;;;;5040777;28;20151;-72
2021/11/10 11:26:51;;;;;;;42.22;18.02;;;;;;;;;;5040619;28;20433;-71
2021/11/10 11:29:19;;;;;;;47.63;18.52;;;;;;;;;;5046914;28;20040;-71
2021/11/10 11:31:45;;;;;;;41.25;16.98;;;;;;;;;;5048111;28;20049;-71
2021/11/10 11:34:12;;;;;;;33.70;17.85;;;;;;;;;;5050949;28;20087;-71
2021/11/10 11:36:46;;;;;;;40.72;17.35;;;;;;;;;;5050513;28;20041;-71
2021/11/10 11:39:13;;;;;;;38.67;18.20;;;;;;;;;;5052691;28;20057;-71
2021/11/10 11:41:39;;;;;;;37.80;17.17;;;;;;;;;;5087269;28;20041;-71
2021/11/10 11:44:06;;;;;;;39.83;20.65;;;;;;;;;;5054489;28;20060;-71
2021/11/10 11:46:33;;;;;;;41.15;17.77;;;;;;;;;;5053371;28;20559;-71
2021/11/10 11:49:00;;;;;;;47.05;19.63;;;;;;;;;;5053706;28;20049;-71
2021/11/10 11:51:26;;;;;;;39.30;18.92;;;;;;;;;;5054370;28;20164;-71
2021/11/10 11:53:53;;;;;;;43.65;18.95;;;;;;;;;;5039520;28;20094;-71
2021/11/10 11:56:19;;;;;;;51.20;19.08;;;;;;;;;;5087182;28;20056;-71
2021/11/10 11:59:04;;;;;;;43.30;19.25;;;;;;;;;;5086524;28;20053;-71
2021/11/10 12:01:31;;;;;;;40.97;18.65;;;;;;;;;;5054685;28;20037;-71
2021/11/10 12:04:04;;;;;;;50.83;19.77;;;;;;;;;;5054483;28;20088;-71
2021/11/10 12:06:31;;;;;;;50.92;19.75;;;;;;;;;;5052841;28;20072;-71
2021/11/10 12:08:58;;;;;;;51.88;20.48;;;;;;;;;;5054133;28;20048;-71
2021/11/10 12:11:36;;;;;;;44.92;19.77;;;;;;;;;;5054863;28;20048;-71
2021/11/10 12:14:02;;;;;;;60.63;20.92;;;;;;;;;;5054238;28;20047;-71
2021/11/10 12:16:28;;;;;;;48.58;19.83;;;;;;;;;;5054379;28;20037;-71
2021/11/10 12:18:58;;;;;;;60.20;20.85;;;;;;;;;;5052481;28;20052;-71
2021/11/10 12:21:33;;;;;;;55.47;21.48;;;;;;;;;;5053054;28;20121;-71
2021/11/10 12:24:05;;;;;;;51.55;22.60;;;;;;;;;;5054271;28;20080;-71
2021/11/10 12:26:31;;;;;;;51.13;22.45;;;;;;;;;;5053759;28;20071;-71
2021/11/10 12:28:58;;;;;;;44.30;19.77;;;;;;;;;;5086375;28;20085;-71
2021/11/10 12:31:36;;;;;;;52.67;22.63;;;;;;;;;;5054124;28;20040;-71
2021/11/10 12:34:03;;;;;;;54.83;23.80;;;;;;;;;;5053518;28;20443;-71
2021/11/10 12:36:49;;;;;;;53.13;24.50;;;;;;;;;;5053920;28;20049;-71
2021/11/10 12:39:15;;;;;;;51.25;23.15;;;;;;;;;;5054314;28;20423;-71
2021/11/10 12:41:47;;;;;;;60.65;23.92;;;;;;;;;;5052323;28;20404;-71
2021/11/10 12:44:24;;;;;;;54.42;24.48;;;;;;;;;;5053870;28;20375;-71
2021/11/10 12:46:51;;;;;;;54.78;24.63;;;;;;;;;;5053292;28;20057;-71
2021/11/10 12:49:17;;;;;;;53.72;23.75;;;;;;;;;;5054065;28;20037;-71
2021/11/10 12:51:44;;;;;;;54.33;25.30;;;;;;;;;;5052366;28;20506;-71
2021/11/10 12:54:23;;;;;;;50.13;24.52;;;;;;;;;;5053361;28;20362;-71
2021/11/10 12:56:49;;;;;;;47.00;22.98;;;;;;;;;;5053394;28;20484;-71
2021/11/10 12:59:29;;;;;;;57.85;24.33;;;;;;;;;;5069303;28;20049;-71
2021/11/10 13:01:56;;;;;;;49.35;23.48;;;;;;;;;;5053006;28;20049;-71
2021/11/10 13:04:24;;;;;;;50.90;23.92;;;;;;;;;;5053253;28;20092;-71
2021/11/10 13:06:54;;;;;;;52.00;24.63;;;;;;;;;;5052054;28;20103;-71
2021/11/10 13:09:26;;;;;;;55.20;25.42;;;;;;;;;;5051901;28;20067;-71
2021/11/10 13:11:53;;;;;;;47.15;22.58;;;;;;;;;;5053221;28;20162;-71
2021/11/10 13:14:21;;;;;;;61.95;25.05;;;;;;;;;;5053675;28;20033;-71
2021/11/10 13:16:58;;;;;;;51.83;22.70;;;;;;;;;;5052830;28;20559;-71
2021/11/10 13:19:37;;;;;;;48.05;22.15;;;;;;;;;;5053203;28;20047;-71
2021/11/10 13:22:03;;;;;;;52.58;22.55;;;;;;;;;;5052789;28;20076;-71
2021/11/10 13:24:29;;;;;;;44.58;21.95;;;;;;;;;;5053344;28;20433;-71
2021/11/10 13:26:55;;;;;;;43.60;22.52;;;;;;;;;;5053073;28;20091;-71
2021/11/10 13:29:22;;;;;;;50.97;24.38;;;;;;;;;;5052378;28;20049;-71
2021/11/10 13:31:50;;;;;;;54.13;23.35;;;;;;;;;;5068315;28;20036;-71
2021/11/10 13:34:16;;;;;;;52.67;22.52;;;;;;;;;;5052987;28;20033;-71
2021/11/10 13:36:42;;;;;;;53.92;22.48;;;;;;;;;;5051117;28;20117;-71
2021/11/10 13:39:11;;;;;;;56.55;23.48;;;;;;;;;;5051408;28;20527;-71
2021/11/10 13:41:46;;;;;;;56.70;23.90;;;;;;;;;;5052872;28;20045;-71
2021/11/10 13:44:14;;;;;;;45.88;25.33;;;;;;;;;;5052413;28;20048;-71
2021/11/10 13:46:42;;;;;;;45.35;23.70;;;;;;;;;;5067949;28;20045;-71
2021/11/10 13:49:11;;;;;;;54.65;25.50;;;;;;;;;;5084962;28;20083;-71
2021/11/10 13:51:38;;;;;;;65.30;27.85;;;;;;;;;;5052083;28;20492;-71
2021/11/10 13:54:07;;;;;;;50.75;24.90;;;;;;;;;;5051040;28;20056;-71
2021/11/10 13:56:37;;;;;;;54.58;24.27;;;;;;;;;;5051104;28;20386;-71
2021/11/10 13:59:09;;;;;;;53.75;25.02;;;;;;;;;;5050780;28;20049;-71
2021/11/10 14:01:35;;;;;;;48.58;23.45;;;;;;;;;;5052058;28;20473;-71
2021/11/10 14:04:01;;;;;;;44.08;23.45;;;;;;;;;;5052276;28;20047;-71
2021/11/10 14:06:27;;;;;;;48.72;25.05;;;;;;;;;;5052053;28;20055;-71
2021/11/10 14:09:07;;;;;;;53.47;26.02;;;;;;;;;;5052088;28;20492;-71
2021/11/10 14:11:33;;;;;;;51.60;25.45;;;;;;;;;;5051836;28;20447;-71
2021/11/10 14:13:59;;;;;;;43.30;24.67;;;;;;;;;;5050425;28;20385;-71
2021/11/10 14:16:25;;;;;;;48.38;25.70;;;;;;;;;;5052279;28;20475;-71
2021/11/10 14:18:52;;;;;;;47.40;25.35;;;;;;;;;;5051715;28;20055;-71
2021/11/10 14:21:26;;;;;;;54.17;24.52;;;;;;;;;;5067240;28;20479;-71